createdAt,value
2022-08-25T00:00:22.117Z,100.00
2022-08-25T00:03:05.636Z,100.00
2022-08-25T00:05:34.411Z,100.00
2022-08-25T00:08:06.589Z,100.00
2022-08-25T00:10:39.512Z,100.00
2022-08-25T00:13:09.084Z,100.00
2022-08-25T00:15:38.402Z,100.00
2022-08-25T00:18:14.776Z,100.00
2022-08-25T00:20:49.646Z,100.00
2022-08-25T00:23:20.328Z,100.00
2022-08-25T00:25:48.853Z,100.00
2022-08-25T00:28:18.372Z,100.00
2022-08-25T00:30:46.885Z,100.00
2022-08-25T00:33:16.576Z,100.00
2022-08-25T00:35:45.687Z,100.00
2022-08-25T00:38:14.363Z,100.00
2022-08-25T00:40:43.950Z,100.00
2022-08-25T00:43:13.426Z,100.00
2022-08-25T00:45:41.757Z,100.00
2022-08-25T00:48:10.208Z,100.00
2022-08-25T00:50:38.699Z,100.00
2022-08-25T00:53:08.566Z,100.00
2022-08-25T00:55:40.844Z,100.00
2022-08-25T00:58:25.702Z,100.00
2022-08-25T01:00:57.890Z,100.00
2022-08-25T01:03:31.614Z,100.00
2022-08-25T01:06:05.186Z,100.00
2022-08-25T01:08:34.552Z,100.00
2022-08-25T01:11:09.111Z,100.00
2022-08-25T01:13:53.133Z,100.00
2022-08-25T01:16:22.350Z,100.00
2022-08-25T01:18:58.012Z,100.00
2022-08-25T01:21:30.057Z,100.00
2022-08-25T01:24:00.822Z,100.00
2022-08-25T01:26:34.918Z,100.00
2022-08-25T01:29:26.949Z,100.00
2022-08-25T01:32:00.060Z,100.00
2022-08-25T01:34:34.441Z,100.00
2022-08-25T01:37:04.397Z,100.00
2022-08-25T01:39:34.195Z,100.00
2022-08-25T01:42:38.832Z,100.00
2022-08-25T01:45:08.694Z,100.00
2022-08-25T01:47:37.778Z,100.00
2022-08-25T01:50:07.332Z,100.00
2022-08-25T01:52:54.217Z,100.00
2022-08-25T01:55:23.125Z,100.00
2022-08-25T01:57:51.722Z,100.00
2022-08-25T02:00:22.988Z,100.00
2022-08-25T02:02:54.145Z,100.00
2022-08-25T02:05:24.102Z,100.00
2022-08-25T02:07:52.696Z,100.00
2022-08-25T02:10:22.718Z,100.00
2022-08-25T02:12:51.735Z,100.00
2022-08-25T02:15:22.924Z,100.00
2022-08-25T02:17:51.457Z,100.00
2022-08-25T02:20:19.887Z,100.00
2022-08-25T02:22:56.912Z,100.00
2022-08-25T02:25:26.075Z,100.00
2022-08-25T02:27:54.639Z,100.00
2022-08-25T02:30:23.537Z,100.00
2022-08-25T02:32:52.144Z,100.00
2022-08-25T02:35:21.164Z,100.00
2022-08-25T02:37:52.045Z,100.00
2022-08-25T02:40:23.266Z,100.00
2022-08-25T02:42:51.811Z,100.00
2022-08-25T02:45:20.207Z,100.00
2022-08-25T02:47:48.678Z,100.00
2022-08-25T02:50:17.055Z,100.00
2022-08-25T02:52:45.450Z,100.00
2022-08-25T02:55:14.467Z,100.00
2022-08-25T02:57:43.280Z,100.00
2022-08-25T03:00:14.875Z,100.00
2022-08-25T03:02:44.262Z,100.00
2022-08-25T03:05:15.486Z,100.00
2022-08-25T03:07:44.125Z,100.00
2022-08-25T03:10:18.482Z,100.00
2022-08-25T03:12:47.874Z,100.00
2022-08-25T03:15:17.889Z,100.00
2022-08-25T03:17:49.439Z,100.00
2022-08-25T03:20:19.961Z,100.00
2022-08-25T03:22:48.955Z,100.00
2022-08-25T03:25:36.855Z,100.00
2022-08-25T03:28:08.157Z,100.00
2022-08-25T03:30:36.639Z,100.00
2022-08-25T03:33:05.070Z,100.00
2022-08-25T03:35:33.574Z,100.00
2022-08-25T03:38:02.364Z,100.00
2022-08-25T03:40:30.954Z,100.00
2022-08-25T03:42:59.487Z,100.00
2022-08-25T03:45:27.961Z,100.00
2022-08-25T03:47:56.857Z,100.00
2022-08-25T03:50:25.481Z,100.00
2022-08-25T03:52:56.619Z,100.00
2022-08-25T03:55:26.548Z,100.00
2022-08-25T03:57:55.723Z,100.00
2022-08-25T04:00:24.271Z,100.00
2022-08-25T04:02:52.626Z,100.00
2022-08-25T04:05:21.263Z,100.00
2022-08-25T04:07:49.657Z,100.00
2022-08-25T04:10:18.218Z,100.00
2022-08-25T04:12:47.356Z,100.00
2022-08-25T04:15:16.216Z,100.00
2022-08-25T04:17:44.935Z,100.00
2022-08-25T04:20:14.043Z,100.00
2022-08-25T04:22:45.169Z,100.00
2022-08-25T04:25:14.144Z,100.00
2022-08-25T04:27:42.543Z,100.00
2022-08-25T04:30:12.104Z,100.00
2022-08-25T04:32:40.570Z,100.00
2022-08-25T04:35:09.607Z,100.00
2022-08-25T04:37:37.913Z,100.00
2022-08-25T04:40:07.488Z,100.00
2022-08-25T04:42:36.014Z,100.00
2022-08-25T04:45:05.746Z,100.00
2022-08-25T04:47:39.928Z,100.00
2022-08-25T04:50:08.952Z,100.00
2022-08-25T04:52:37.740Z,100.00
2022-08-25T04:55:06.339Z,100.00
2022-08-25T04:57:34.699Z,100.00
2022-08-25T05:00:05.239Z,100.00
2022-08-25T05:02:33.697Z,100.00
2022-08-25T05:05:04.144Z,100.00
2022-08-25T05:07:32.457Z,100.00
2022-08-25T05:10:00.827Z,100.00
2022-08-25T05:12:30.386Z,100.00
2022-08-25T05:15:21.337Z,100.00
2022-08-25T05:17:53.849Z,100.00
2022-08-25T05:20:24.842Z,100.00
2022-08-25T05:22:53.270Z,100.00
2022-08-25T05:25:21.762Z,100.00
2022-08-25T05:27:50.615Z,100.00
2022-08-25T05:30:19.084Z,100.00
2022-08-25T05:32:47.497Z,100.00
2022-08-25T05:35:16.440Z,100.00
2022-08-25T05:37:44.811Z,100.00
2022-08-25T05:40:14.038Z,100.00
2022-08-25T05:42:42.470Z,100.00
2022-08-25T05:45:11.570Z,100.00
2022-08-25T05:47:45.826Z,100.00
2022-08-25T05:50:14.275Z,100.00
2022-08-25T05:52:42.722Z,100.00
2022-08-25T05:55:11.819Z,100.00
2022-08-25T05:57:40.147Z,100.00
2022-08-25T06:00:10.147Z,100.00
2022-08-25T06:02:48.708Z,100.00
2022-08-25T06:05:23.141Z,100.00
2022-08-25T06:07:52.930Z,100.00
2022-08-25T06:10:22.111Z,100.00
2022-08-25T06:12:51.094Z,100.00
2022-08-25T06:15:24.610Z,100.00
2022-08-25T06:17:56.778Z,100.00
2022-08-25T06:20:31.207Z,100.00
2022-08-25T06:23:00.299Z,100.00
2022-08-25T06:25:32.771Z,100.00
2022-08-25T06:28:01.275Z,100.00
2022-08-25T06:30:30.111Z,100.00
2022-08-25T06:32:58.593Z,100.00
2022-08-25T06:35:28.107Z,100.00
2022-08-25T06:37:56.530Z,100.00
2022-08-25T06:40:26.150Z,100.00
2022-08-25T06:42:54.781Z,100.00
2022-08-25T06:45:23.119Z,100.00
2022-08-25T06:47:53.267Z,100.00
2022-08-25T06:50:21.947Z,100.00
2022-08-25T06:52:51.817Z,100.00
2022-08-25T06:55:20.437Z,100.00
2022-08-25T06:57:48.785Z,100.00
2022-08-25T07:00:17.948Z,100.00
2022-08-25T07:02:47.503Z,100.00
2022-08-25T07:05:26.903Z,100.00
2022-08-25T07:08:02.580Z,100.00
2022-08-25T07:10:31.118Z,100.00
2022-08-25T07:13:00.140Z,100.00
2022-08-25T07:15:28.717Z,100.00
2022-08-25T07:17:58.112Z,100.00
2022-08-25T07:23:00.027Z,100.00
2022-08-25T07:25:29.116Z,100.00
2022-08-25T07:27:59.070Z,100.00
2022-08-25T07:30:28.266Z,100.00
2022-08-25T07:32:57.043Z,100.00
2022-08-25T07:35:27.560Z,100.00
2022-08-25T07:38:13.533Z,100.00
2022-08-25T07:40:46.280Z,100.00
2022-08-25T07:43:22.556Z,100.00
2022-08-25T07:45:51.037Z,100.00
2022-08-25T07:48:22.785Z,100.00
2022-08-25T07:50:52.484Z,100.00
2022-08-25T07:53:22.735Z,100.00
2022-08-25T07:55:51.418Z,100.00
2022-08-25T07:58:22.324Z,100.00
2022-08-25T08:00:59.898Z,100.00
2022-08-25T08:03:45.187Z,100.00
2022-08-25T08:06:24.646Z,100.00
2022-08-25T08:08:57.806Z,100.00
2022-08-25T08:11:34.242Z,100.00
2022-08-25T08:14:03.269Z,100.00
2022-08-25T08:16:33.299Z,100.00
2022-08-25T08:19:03.114Z,100.00
2022-08-25T08:21:35.063Z,100.00
2022-08-25T08:24:10.673Z,100.00
2022-08-25T08:26:58.236Z,100.00
2022-08-25T08:29:27.945Z,100.00
2022-08-25T08:31:56.301Z,100.00
2022-08-25T08:34:25.146Z,100.00
2022-08-25T08:36:53.908Z,100.00
2022-08-25T08:39:24.221Z,100.00
2022-08-25T08:42:19.834Z,100.00
2022-08-25T08:45:35.281Z,100.00
2022-08-25T08:48:32.998Z,100.00
2022-08-25T08:51:32.915Z,100.00
2022-08-25T08:54:18.531Z,100.00
2022-08-25T08:57:02.845Z,100.00
2022-08-25T08:59:42.015Z,100.00
2022-08-25T09:02:39.300Z,100.00
2022-08-25T09:05:19.262Z,100.00
2022-08-25T09:08:13.479Z,100.00
2022-08-25T09:11:16.503Z,100.00
2022-08-25T09:14:17.533Z,100.00
2022-08-25T09:17:17.472Z,100.00
2022-08-25T09:20:18.850Z,100.00
2022-08-25T09:23:21.404Z,100.00
2022-08-25T09:26:17.884Z,100.00
2022-08-25T09:28:51.169Z,100.00
2022-08-25T09:31:32.106Z,100.00
2022-08-25T09:34:05.848Z,100.00
2022-08-25T09:36:37.778Z,100.00
2022-08-25T09:39:08.183Z,100.00
2022-08-25T09:41:46.497Z,100.00
2022-08-25T09:44:22.560Z,100.00
2022-08-25T09:47:30.186Z,100.00
2022-08-25T09:50:05.540Z,100.00
2022-08-25T09:52:44.339Z,100.00
2022-08-25T09:55:14.580Z,100.00
2022-08-25T09:57:43.338Z,100.00
2022-08-25T10:00:17.493Z,100.00
2022-08-25T10:03:22.718Z,100.00
2022-08-25T10:05:59.252Z,100.00
2022-08-25T10:08:45.541Z,100.00
2022-08-25T10:11:31.451Z,100.00
2022-08-25T10:14:26.381Z,100.00
2022-08-25T10:17:30.199Z,100.00
2022-08-25T10:20:10.665Z,100.00
2022-08-25T10:22:42.599Z,100.00
2022-08-25T10:25:15.689Z,100.00
2022-08-25T10:27:53.111Z,100.00
2022-08-25T10:30:59.551Z,100.00
2022-08-25T10:33:39.440Z,100.00
2022-08-25T10:36:23.465Z,100.00
2022-08-25T10:39:01.910Z,100.00
2022-08-25T10:42:03.229Z,99.59
2022-08-25T10:45:12.363Z,98.47
2022-08-25T10:48:13.206Z,98.65
2022-08-25T10:50:51.234Z,93.37
2022-08-25T10:53:38.801Z,87.42
2022-08-25T10:56:31.485Z,87.90
2022-08-25T10:59:51.237Z,88.79
2022-08-25T11:03:22.679Z,87.38
2022-08-25T11:05:59.108Z,86.77
2022-08-25T11:08:28.392Z,86.24
2022-08-25T11:11:41.246Z,85.82
2022-08-25T11:14:18.427Z,84.88
2022-08-25T11:17:01.718Z,84.56
2022-08-25T11:19:38.715Z,83.73
2022-08-25T11:22:39.987Z,83.88
2022-08-25T11:25:35.573Z,84.47
2022-08-25T11:28:26.237Z,84.06
2022-08-25T11:30:58.122Z,83.41
2022-08-25T11:33:30.712Z,82.94
2022-08-25T11:36:08.480Z,82.81
2022-08-25T11:39:10.894Z,81.66
2022-08-25T11:42:12.473Z,82.76
2022-08-25T11:45:27.839Z,81.51
2022-08-25T11:47:56.086Z,82.94
2022-08-25T11:50:35.106Z,82.57
2022-08-25T11:53:30.884Z,81.90
2022-08-25T11:56:12.683Z,81.01
2022-08-25T11:58:43.986Z,79.36
2022-08-25T12:01:32.485Z,78.75
2022-08-25T12:04:44.738Z,79.13
2022-08-25T12:07:22.445Z,78.98
2022-08-25T12:09:51.003Z,79.72
2022-08-25T12:12:59.787Z,79.86
2022-08-25T12:15:54.500Z,78.57
2022-08-25T12:18:22.941Z,77.69
2022-08-25T12:20:57.070Z,77.27
2022-08-25T12:23:45.275Z,76.51
2022-08-25T12:26:46.156Z,76.68
2022-08-25T12:29:28.241Z,77.03
2022-08-25T12:32:11.107Z,76.92
2022-08-25T12:35:11.152Z,76.73
2022-08-25T12:38:07.719Z,76.12
2022-08-25T12:40:45.983Z,75.32
2022-08-25T12:43:37.886Z,76.39
2022-08-25T12:46:22.117Z,74.88
2022-08-25T12:49:00.840Z,75.40
2022-08-25T12:51:48.501Z,75.31
2022-08-25T12:54:35.831Z,75.03
2022-08-25T12:57:29.957Z,75.47
2022-08-25T13:00:13.734Z,75.05
2022-08-25T13:03:15.946Z,74.43
2022-08-25T13:05:56.059Z,73.82
2022-08-25T13:09:28.576Z,73.95
2022-08-25T13:12:31.928Z,73.69
2022-08-25T13:15:01.168Z,73.83
2022-08-25T13:17:34.472Z,73.64
2022-08-25T13:20:25.753Z,72.09
2022-08-25T13:23:01.128Z,71.41
2022-08-25T13:25:34.758Z,72.47
2022-08-25T13:28:06.619Z,73.47
2022-08-25T13:30:40.036Z,73.78
2022-08-25T13:33:21.936Z,73.65
2022-08-25T13:36:14.337Z,73.21
2022-08-25T13:38:46.763Z,73.48
2022-08-25T13:41:29.177Z,72.50
2022-08-25T13:44:00.881Z,72.72
2022-08-25T13:46:31.802Z,72.62
2022-08-25T13:49:08.955Z,72.01
2022-08-25T13:51:52.042Z,71.81
2022-08-25T13:54:31.030Z,71.83
2022-08-25T13:57:22.546Z,71.12
2022-08-25T14:00:01.235Z,71.52
2022-08-25T14:02:51.740Z,72.61
2022-08-25T14:05:40.553Z,73.20
2022-08-25T14:08:39.209Z,73.77
2022-08-25T14:11:31.901Z,73.34
2022-08-25T14:14:08.543Z,72.43
2022-08-25T14:16:51.081Z,71.98
2022-08-25T14:19:24.103Z,71.03
2022-08-25T14:21:56.772Z,71.16
2022-08-25T14:24:27.311Z,71.09
2022-08-25T14:26:55.933Z,70.29
2022-08-25T14:29:28.455Z,70.26
2022-08-25T14:31:59.363Z,70.14
2022-08-25T14:34:37.108Z,70.00
2022-08-25T14:37:39.085Z,69.44
2022-08-25T14:40:14.338Z,69.12
2022-08-25T14:42:42.759Z,69.41
2022-08-25T14:45:11.154Z,69.41
2022-08-25T14:47:40.697Z,69.15
2022-08-25T14:50:13.911Z,68.71
2022-08-25T14:52:44.060Z,68.04
2022-08-25T14:55:13.248Z,68.35
2022-08-25T14:57:56.090Z,68.70
2022-08-25T15:00:25.843Z,68.79
2022-08-25T15:02:54.904Z,68.30
2022-08-25T15:05:28.423Z,68.25
2022-08-25T15:08:16.341Z,67.55
2022-08-25T15:10:44.698Z,67.25
2022-08-25T15:13:14.829Z,67.13
2022-08-25T15:15:52.928Z,67.01
2022-08-25T15:18:22.293Z,66.61
2022-08-25T15:20:51.848Z,66.84
2022-08-25T15:23:20.805Z,66.92
2022-08-25T15:25:52.616Z,66.75
2022-08-25T15:28:22.512Z,67.08
2022-08-25T15:30:51.206Z,67.34
2022-08-25T15:33:19.606Z,66.97
2022-08-25T15:35:48.600Z,66.81
2022-08-25T15:38:18.889Z,66.56
2022-08-25T15:40:47.242Z,66.36
2022-08-25T15:43:16.996Z,66.23
2022-08-25T15:45:46.597Z,66.58
2022-08-25T15:48:15.067Z,67.16
2022-08-25T15:50:43.394Z,66.95
2022-08-25T15:53:11.739Z,67.21
2022-08-25T15:55:43.020Z,67.27
2022-08-25T15:58:12.588Z,67.10
2022-08-25T16:00:41.819Z,67.10
2022-08-25T16:03:11.108Z,67.82
2022-08-25T16:05:48.255Z,67.73
2022-08-25T16:08:19.645Z,67.86
2022-08-25T16:10:48.360Z,68.89
2022-08-25T16:13:18.545Z,69.80
2022-08-25T16:16:15.535Z,70.77
2022-08-25T16:18:48.361Z,71.60
2022-08-25T16:21:28.999Z,72.32
2022-08-25T16:24:07.588Z,72.56
2022-08-25T16:26:48.293Z,72.40
2022-08-25T16:29:18.061Z,72.47
2022-08-25T16:31:55.051Z,72.63
2022-08-25T16:34:24.844Z,72.54
2022-08-25T16:36:57.827Z,72.79
2022-08-25T16:39:27.802Z,72.86
2022-08-25T16:41:56.384Z,73.08
2022-08-25T16:44:24.735Z,72.96
2022-08-25T16:46:55.330Z,73.69
2022-08-25T16:49:25.344Z,74.62
2022-08-25T16:51:56.661Z,74.60
2022-08-25T16:54:45.796Z,74.75
2022-08-25T16:57:14.181Z,74.54
2022-08-25T16:59:43.940Z,74.55
2022-08-25T17:02:12.527Z,74.46
2022-08-25T17:04:41.072Z,74.28
2022-08-25T17:07:09.392Z,73.92
2022-08-25T17:09:37.732Z,73.90
2022-08-25T17:12:06.185Z,73.85
2022-08-25T17:14:34.846Z,74.22
2022-08-25T17:17:04.073Z,74.68
2022-08-25T17:19:36.250Z,75.29
2022-08-25T17:22:08.217Z,75.58
2022-08-25T17:24:37.526Z,76.00
2022-08-25T17:27:10.266Z,76.24
2022-08-25T17:29:40.950Z,76.97
2022-08-25T17:32:10.203Z,77.41
2022-08-25T17:34:39.840Z,77.59
2022-08-25T17:37:08.166Z,78.17
2022-08-25T17:39:36.625Z,78.56
2022-08-25T17:42:05.220Z,79.25
2022-08-25T17:44:33.622Z,79.58
2022-08-25T17:47:02.247Z,79.82
2022-08-25T17:49:30.622Z,80.12
2022-08-25T17:51:59.433Z,80.61
2022-08-25T17:54:27.747Z,81.05
2022-08-25T17:56:56.285Z,81.79
2022-08-25T17:59:25.174Z,82.09
2022-08-25T18:01:55.517Z,82.26
2022-08-25T18:04:24.138Z,82.84
2022-08-25T18:06:58.661Z,83.55
2022-08-25T18:09:27.393Z,83.91
2022-08-25T18:11:56.411Z,84.33
2022-08-25T18:14:25.600Z,84.72
2022-08-25T18:16:57.249Z,85.00
2022-08-25T18:19:25.585Z,85.97
2022-08-25T18:21:53.936Z,86.23
2022-08-25T18:24:23.678Z,86.64
2022-08-25T18:26:52.209Z,87.12
2022-08-25T18:29:21.289Z,87.43
2022-08-25T18:31:51.899Z,87.82
2022-08-25T18:34:25.031Z,88.13
2022-08-25T18:36:53.438Z,88.55
2022-08-25T18:39:40.725Z,89.04
2022-08-25T18:42:09.219Z,89.32
2022-08-25T18:44:37.735Z,89.82
2022-08-25T18:47:07.688Z,90.21
2022-08-25T18:49:37.736Z,90.66
2022-08-25T18:52:06.686Z,90.91
2022-08-25T18:54:36.370Z,91.37
2022-08-25T18:57:08.206Z,91.91
2022-08-25T18:59:38.008Z,92.40
2022-08-25T19:02:07.613Z,92.53
2022-08-25T19:04:37.945Z,92.82
2022-08-25T19:07:08.971Z,93.24
2022-08-25T19:09:37.452Z,93.51
2022-08-25T19:12:06.026Z,93.75
2022-08-25T19:14:40.115Z,94.27
2022-08-25T19:17:09.953Z,94.43
2022-08-25T19:19:38.383Z,94.76
2022-08-25T19:22:16.573Z,94.91
2022-08-25T19:24:55.541Z,95.18
2022-08-25T19:27:24.858Z,95.35
2022-08-25T19:29:53.341Z,95.49
2022-08-25T19:32:21.704Z,95.86
2022-08-25T19:34:55.497Z,96.10
2022-08-25T19:37:27.970Z,96.34
2022-08-25T19:39:57.429Z,96.65
2022-08-25T19:42:36.831Z,97.58
2022-08-25T19:45:10.649Z,100.00
2022-08-25T19:47:41.444Z,100.00
2022-08-25T19:50:16.830Z,100.00
2022-08-25T19:52:46.872Z,100.00
2022-08-25T19:55:19.681Z,100.00
2022-08-25T19:57:48.455Z,99.96
2022-08-25T20:00:29.369Z,99.93
2022-08-25T20:03:00.314Z,99.85
2022-08-25T20:05:30.665Z,99.81
2022-08-25T20:08:00.125Z,99.71
2022-08-25T20:10:36.659Z,99.91
2022-08-25T20:13:10.391Z,99.78
2022-08-25T20:15:39.393Z,99.82
2022-08-25T20:18:08.526Z,99.73
2022-08-25T20:20:36.916Z,99.87
2022-08-25T20:23:24.854Z,100.00
2022-08-25T20:25:53.535Z,99.89
2022-08-25T20:28:22.129Z,100.00
2022-08-25T20:30:50.598Z,100.00
2022-08-25T20:33:22.899Z,100.00
2022-08-25T20:35:52.942Z,100.00
2022-08-25T20:38:21.759Z,100.00
2022-08-25T20:40:50.257Z,100.00
2022-08-25T20:43:20.883Z,100.00
2022-08-25T20:45:49.800Z,100.00
2022-08-25T20:48:18.328Z,100.00
2022-08-25T20:50:57.307Z,100.00
2022-08-25T20:53:27.078Z,100.00
2022-08-25T20:55:55.504Z,100.00
2022-08-25T20:58:23.841Z,100.00
2022-08-25T21:00:55.074Z,100.00
2022-08-25T21:03:23.421Z,100.00
2022-08-25T21:05:54.080Z,100.00
2022-08-25T21:08:23.826Z,100.00
2022-08-25T21:10:54.062Z,100.00
2022-08-25T21:13:22.843Z,100.00
2022-08-25T21:15:51.357Z,100.00
2022-08-25T21:18:19.821Z,100.00
2022-08-25T21:20:48.259Z,100.00
2022-08-25T21:23:17.139Z,100.00
2022-08-25T21:25:45.739Z,100.00
2022-08-25T21:28:15.012Z,100.00
2022-08-25T21:30:44.808Z,100.00
2022-08-25T21:33:15.825Z,100.00
2022-08-25T21:35:44.392Z,100.00
2022-08-25T21:38:15.519Z,100.00
2022-08-25T21:40:45.003Z,100.00
2022-08-25T21:43:13.695Z,100.00
2022-08-25T21:45:49.912Z,100.00
2022-08-25T21:48:18.662Z,100.00
2022-08-25T21:50:47.151Z,100.00
2022-08-25T21:53:15.800Z,100.00
2022-08-25T21:55:44.829Z,100.00
2022-08-25T21:58:13.399Z,100.00
2022-08-25T22:00:41.987Z,100.00
2022-08-25T22:03:10.279Z,100.00
2022-08-25T22:05:39.387Z,100.00
2022-08-25T22:08:08.998Z,100.00
2022-08-25T22:10:44.820Z,100.00
2022-08-25T22:13:13.545Z,100.00
2022-08-25T22:15:41.920Z,100.00
2022-08-25T22:18:10.299Z,100.00
2022-08-25T22:20:39.236Z,100.00
2022-08-25T22:23:10.027Z,100.00
2022-08-25T22:25:48.777Z,100.00
2022-08-25T22:28:17.608Z,100.00
2022-08-25T22:30:46.077Z,100.00
2022-08-25T22:33:14.863Z,100.00
2022-08-25T22:35:43.701Z,100.00
2022-08-25T22:38:12.395Z,100.00
2022-08-25T22:40:41.282Z,100.00
2022-08-25T22:43:10.897Z,100.00
2022-08-25T22:45:39.897Z,100.00
2022-08-25T22:48:08.607Z,100.00
2022-08-25T22:50:38.051Z,100.00
2022-08-25T22:53:06.630Z,100.00
2022-08-25T22:55:43.787Z,100.00
2022-08-25T22:58:12.310Z,100.00
2022-08-25T23:00:41.505Z,100.00
2022-08-25T23:03:11.246Z,100.00
2022-08-25T23:05:40.386Z,100.00
2022-08-25T23:08:08.838Z,100.00
2022-08-25T23:10:37.209Z,100.00
2022-08-25T23:13:07.184Z,100.00
2022-08-25T23:15:35.913Z,100.00
2022-08-25T23:18:05.370Z,100.00
2022-08-25T23:20:52.660Z,100.00
2022-08-25T23:23:21.224Z,100.00
2022-08-25T23:25:51.362Z,100.00
2022-08-25T23:28:20.604Z,100.00
2022-08-25T23:30:59.358Z,100.00
2022-08-25T23:33:28.702Z,100.00
2022-08-25T23:36:00.171Z,100.00
2022-08-25T23:38:29.107Z,100.00
2022-08-25T23:40:58.707Z,100.00
2022-08-25T23:43:28.111Z,100.00
2022-08-25T23:45:56.836Z,100.00
2022-08-25T23:48:25.274Z,100.00
2022-08-25T23:50:53.988Z,100.00
2022-08-25T23:53:22.675Z,100.00
2022-08-25T23:55:53.903Z,100.00
2022-08-25T23:58:24.073Z,100.00
